createdAt,value
2016-02-26T00:00:05.982Z,88.64
2016-02-26T00:01:05.984Z,88.64
2016-02-26T00:02:05.988Z,88.64
2016-02-26T00:03:05.990Z,88.64
2016-02-26T00:04:05.977Z,88.93
2016-02-26T00:05:05.979Z,88.55
2016-02-26T00:06:05.998Z,88.45
2016-02-26T00:07:05.985Z,88.45
2016-02-26T00:08:05.987Z,88.64
2016-02-26T00:09:05.975Z,88.36
2016-02-26T00:10:05.992Z,88.45
2016-02-26T00:11:05.980Z,89.21
2016-02-26T00:12:05.983Z,89.12
2016-02-26T00:13:05.970Z,89.12
2016-02-26T00:14:05.988Z,89.31
2016-02-26T00:15:06.007Z,89.02
2016-02-26T00:16:05.994Z,89.02
2016-02-26T00:17:05.981Z,88.55
2016-02-26T00:18:05.967Z,89.02
2016-02-26T00:19:05.970Z,89.02
2016-02-26T00:20:05.973Z,89.02
2016-02-26T00:21:05.976Z,89.31
2016-02-26T00:22:05.994Z,89.21
2016-02-26T00:23:05.981Z,89.31
2016-02-26T00:24:05.968Z,89.02
2016-02-26T00:25:05.986Z,89.21
2016-02-26T00:26:05.974Z,88.83
2016-02-26T00:27:05.976Z,89.31
2016-02-26T00:28:05.980Z,89.21
2016-02-26T00:29:05.966Z,88.36
2016-02-26T00:30:05.968Z,89.12
2016-02-26T00:31:05.987Z,89.31
2016-02-26T00:32:05.974Z,89.02
2016-02-26T00:33:05.993Z,89.02
2016-02-26T00:34:05.963Z,88.83
2016-02-26T00:35:05.966Z,88.83
2016-02-26T00:36:05.969Z,89.02
2016-02-26T00:37:05.987Z,89.12
2016-02-26T00:38:05.959Z,88.93
2016-02-26T00:39:05.976Z,89.02
2016-02-26T00:40:05.964Z,88.64
2016-02-26T00:41:05.967Z,89.02
2016-02-26T00:42:05.985Z,88.64
2016-02-26T00:43:05.972Z,89.31
2016-02-26T00:44:05.975Z,89.21
2016-02-26T00:45:05.978Z,89.4
2016-02-26T00:46:05.965Z,89.12
2016-02-26T00:47:05.983Z,89.31
2016-02-26T00:48:05.970Z,89.12
2016-02-26T00:49:05.972Z,89.21
2016-02-26T00:50:05.960Z,88.74
2016-02-26T00:51:05.963Z,89.12
2016-02-26T00:52:05.966Z,89.21
2016-02-26T00:53:05.969Z,89.12
2016-02-26T00:54:05.955Z,89.31
2016-02-26T00:55:05.958Z,89.12
2016-02-26T00:56:05.991Z,89.02
2016-02-26T00:57:05.963Z,89.17
2016-02-26T00:58:05.966Z,89.31
2016-02-26T00:59:05.969Z,89.5
2016-02-26T01:00:05.972Z,89.31
2016-02-26T01:01:05.958Z,89.31
2016-02-26T01:02:05.960Z,89.31
2016-02-26T01:03:05.963Z,89.21
2016-02-26T01:04:05.967Z,89.4
2016-02-26T01:05:05.954Z,89.31
2016-02-26T01:06:05.957Z,89.31
2016-02-26T01:07:05.959Z,89.31
2016-02-26T01:08:05.962Z,89.4
2016-02-26T01:09:05.964Z,89.12
2016-02-26T01:10:05.951Z,89.21
2016-02-26T01:11:05.954Z,89.31
2016-02-26T01:12:05.945Z,89.31
2016-02-26T01:13:05.936Z,89.21
2016-02-26T01:14:05.926Z,89.21
2016-02-26T01:15:05.917Z,89.59
2016-02-26T01:16:05.907Z,89.69
2016-02-26T01:17:05.905Z,89.4
2016-02-26T01:18:05.887Z,89.31
2016-02-26T01:19:05.871Z,89.31
2016-02-26T01:20:05.869Z,89.31
2016-02-26T01:21:05.867Z,89.31
2016-02-26T01:22:05.884Z,89.31
2016-02-26T01:23:05.870Z,89.4
2016-02-26T01:24:05.871Z,89.21
2016-02-26T01:25:05.856Z,89.4
2016-02-26T01:26:05.857Z,89.36
2016-02-26T01:27:05.859Z,89.4
2016-02-26T01:28:05.861Z,89.31
2016-02-26T01:29:05.863Z,89.4
2016-02-26T01:30:05.850Z,89.31
2016-02-26T01:31:05.867Z,89.59
2016-02-26T01:32:05.854Z,89.02
2016-02-26T01:33:05.857Z,89.02
2016-02-26T01:34:05.859Z,89.12
2016-02-26T01:35:05.847Z,89.02
2016-02-26T01:36:05.849Z,89.21
2016-02-26T01:37:05.852Z,89.4
2016-02-26T01:38:05.854Z,89.31
2016-02-26T01:39:05.873Z,89.4
2016-02-26T01:40:05.860Z,89.12
2016-02-26T01:41:05.847Z,89.4
2016-02-26T01:42:05.849Z,89.5
2016-02-26T01:43:05.852Z,89.69
2016-02-26T01:44:05.855Z,89.69
2016-02-26T01:45:05.842Z,89.78
2016-02-26T01:46:05.845Z,89.87
2016-02-26T01:47:05.848Z,89.69
2016-02-26T01:48:05.851Z,89.87
2016-02-26T01:49:05.837Z,89.87
2016-02-26T01:50:05.856Z,89.83
2016-02-26T01:51:05.842Z,89.87
2016-02-26T01:52:05.861Z,89.64
2016-02-26T01:53:05.848Z,89.54
2016-02-26T01:54:05.851Z,89.64
2016-02-26T01:55:05.837Z,89.73
2016-02-26T01:56:05.856Z,89.36
2016-02-26T01:57:05.859Z,90.3
2016-02-26T01:58:05.846Z,89.54
2016-02-26T01:59:05.848Z,90.3
2016-02-26T02:00:05.836Z,90.11
2016-02-26T02:01:05.838Z,90.11
2016-02-26T02:02:05.841Z,90.11
2016-02-26T02:03:05.844Z,90.01
2016-02-26T02:04:05.830Z,90.11
2016-02-26T02:05:05.833Z,90.2
2016-02-26T02:06:05.836Z,90.2
2016-02-26T02:07:05.839Z,90.01
2016-02-26T02:08:05.841Z,89.92
2016-02-26T02:09:05.860Z,89.83
2016-02-26T02:10:05.846Z,89.83
2016-02-26T02:11:05.850Z,89.92
2016-02-26T02:12:05.837Z,89.83
2016-02-26T02:13:05.840Z,90.2
2016-02-26T02:14:05.842Z,89.73
2016-02-26T02:15:05.845Z,89.73
2016-02-26T02:16:05.832Z,89.73
2016-02-26T02:17:05.834Z,89.73
2016-02-26T02:18:05.837Z,89.92
2016-02-26T02:19:05.840Z,89.73
2016-02-26T02:20:05.826Z,89.73
2016-02-26T02:21:05.845Z,89.73
2016-02-26T02:22:05.832Z,89.83
2016-02-26T02:23:05.834Z,89.92
2016-02-26T02:24:05.837Z,90.11
2016-02-26T02:25:05.840Z,90.11
2016-02-26T02:26:05.859Z,90.11
2016-02-26T02:27:05.830Z,90.11
2016-02-26T02:28:05.833Z,90.11
2016-02-26T02:29:05.820Z,90.3
2016-02-26T02:30:05.823Z,90.01
2016-02-26T02:31:05.825Z,90.01
2016-02-26T02:32:05.828Z,90.01
2016-02-26T02:33:05.830Z,90.01
2016-02-26T02:34:05.834Z,90.2
2016-02-26T02:35:05.820Z,90.39
2016-02-26T02:36:05.823Z,90.39
2016-02-26T02:37:05.841Z,90.39
2016-02-26T02:38:05.828Z,90.58
2016-02-26T02:39:05.815Z,90.39
2016-02-26T02:40:05.818Z,90.39
2016-02-26T02:41:05.836Z,90.39
2016-02-26T02:42:05.839Z,90.2
2016-02-26T02:43:05.827Z,90.11
2016-02-26T02:44:05.829Z,90.11
2016-02-26T02:45:05.815Z,90.2
2016-02-26T02:46:05.818Z,90.68
2016-02-26T02:47:05.822Z,90.3
2016-02-26T02:48:05.824Z,90.3
2016-02-26T02:49:05.812Z,90.58
2016-02-26T02:50:05.829Z,90.49
2016-02-26T02:51:05.817Z,90.68
2016-02-26T02:52:05.803Z,90.68
2016-02-26T02:53:05.822Z,90.3
2016-02-26T02:54:05.809Z,90.3
2016-02-26T02:55:05.812Z,90.3
2016-02-26T02:56:05.815Z,90.49
2016-02-26T02:57:05.817Z,90.3
2016-02-26T02:58:05.819Z,90.58
2016-02-26T02:59:05.806Z,90.11
2016-02-26T03:00:05.826Z,90.2
2016-02-26T03:01:05.812Z,90.11
2016-02-26T03:02:05.831Z,90.2
2016-02-26T03:03:05.802Z,90.49
2016-02-26T03:04:05.805Z,90.3
2016-02-26T03:05:05.808Z,90.3
2016-02-26T03:06:05.815Z,90.39
2016-02-26T03:07:05.802Z,90.3
2016-02-26T03:08:05.805Z,90.3
2016-02-26T03:09:05.855Z,90.77
2016-02-26T03:10:05.811Z,90.3
2016-02-26T03:11:05.813Z,90.2
2016-02-26T03:12:05.801Z,90.49
2016-02-26T03:13:05.803Z,90.2
2016-02-26T03:14:05.806Z,90.39
2016-02-26T03:15:05.809Z,90.3
2016-02-26T03:16:05.827Z,90.77
2016-02-26T03:17:05.799Z,90.3
2016-02-26T03:18:05.801Z,90.77
2016-02-26T03:19:05.804Z,90.49
2016-02-26T03:20:05.807Z,90.86
2016-02-26T03:21:05.794Z,90.58
2016-02-26T03:22:05.796Z,90.2
2016-02-26T03:23:05.799Z,90.3
2016-02-26T03:24:05.801Z,90.2
2016-02-26T03:25:05.805Z,90.39
2016-02-26T03:26:05.791Z,90.39
2016-02-26T03:27:05.810Z,90.58
2016-02-26T03:28:05.796Z,90.49
2016-02-26T03:29:05.799Z,90.77
2016-02-26T03:30:05.802Z,90.68
2016-02-26T03:31:05.790Z,90.39
2016-02-26T03:32:05.792Z,89.64
2016-02-26T03:33:05.795Z,89.83
2016-02-26T03:34:05.797Z,89.17
2016-02-26T03:35:05.800Z,88.31
2016-02-26T03:36:05.850Z,88.41
2016-02-26T03:37:05.789Z,88.31
2016-02-26T03:38:05.809Z,86.71
2016-02-26T03:39:05.795Z,86.61
2016-02-26T03:40:05.798Z,86.23
2016-02-26T03:41:05.785Z,84.67
2016-02-26T03:42:05.788Z,83.15
2016-02-26T03:43:05.806Z,82.4
2016-02-26T03:44:05.809Z,81.17
2016-02-26T03:45:05.796Z,80.04
2016-02-26T03:46:05.783Z,78.71
2016-02-26T03:47:05.785Z,77.29
2016-02-26T03:48:05.788Z,77.58
2016-02-26T03:49:05.775Z,76.53
2016-02-26T03:50:05.777Z,76.25
2016-02-26T03:51:05.797Z,75.21
2016-02-26T03:52:05.799Z,74.55
2016-02-26T03:53:05.785Z,74.45
2016-02-26T03:54:05.788Z,73.22
2016-02-26T03:55:05.791Z,73.03
2016-02-26T03:56:05.794Z,72.18
2016-02-26T03:57:05.782Z,71.71
2016-02-26T03:58:05.799Z,71.04
2016-02-26T03:59:05.787Z,70.57
2016-02-26T04:00:05.789Z,69.82
2016-02-26T04:01:05.776Z,68.96
2016-02-26T04:02:05.779Z,69.53
2016-02-26T04:03:05.766Z,68.87
2016-02-26T04:04:05.784Z,68.68
2016-02-26T04:05:05.771Z,67.83
2016-02-26T04:06:05.773Z,67.83
2016-02-26T04:07:05.776Z,67.45
2016-02-26T04:08:05.764Z,67.64
2016-02-26T04:09:05.781Z,67.55
2016-02-26T04:10:05.769Z,67.45
2016-02-26T04:11:05.772Z,67.17
2016-02-26T04:12:05.774Z,66.88
2016-02-26T04:13:05.777Z,66.79
2016-02-26T04:14:05.765Z,66.69
2016-02-26T04:15:05.783Z,66.79
2016-02-26T04:16:05.770Z,66.88
2016-02-26T04:17:05.772Z,66.79
2016-02-26T04:18:05.760Z,66.79
2016-02-26T04:19:05.777Z,66.88
2016-02-26T04:20:05.765Z,67.13
2016-02-26T04:21:05.768Z,66.88
2016-02-26T04:22:05.771Z,66.69
2016-02-26T04:23:05.757Z,67.36
2016-02-26T04:24:05.760Z,67.74
2016-02-26T04:25:05.762Z,68.46
2016-02-26T04:26:05.812Z,69.02
2016-02-26T04:27:05.800Z,69.59
2016-02-26T04:28:05.771Z,70.25
2016-02-26T04:29:05.758Z,70.82
2016-02-26T04:30:05.760Z,71.77
2016-02-26T04:31:05.748Z,71.86
2016-02-26T04:32:05.765Z,72.62
2016-02-26T04:33:05.754Z,72.8
2016-02-26T04:34:05.756Z,72.71
2016-02-26T04:35:05.759Z,73.75
2016-02-26T04:36:05.761Z,73.28
2016-02-26T04:37:05.764Z,73.75
2016-02-26T04:38:05.766Z,73.94
2016-02-26T04:39:05.753Z,74.41
2016-02-26T04:40:05.757Z,74.22
2016-02-26T04:41:05.759Z,74.79
2016-02-26T04:42:05.745Z,75.07
2016-02-26T04:43:05.748Z,75.17
2016-02-26T04:44:05.751Z,75.64
2016-02-26T04:45:05.739Z,76.02
2016-02-26T04:46:05.773Z,76.21
2016-02-26T04:47:05.744Z,76.5
2016-02-26T04:48:05.747Z,76.68
2016-02-26T04:49:05.749Z,76.78
2016-02-26T04:50:05.736Z,76.78
2016-02-26T04:51:05.738Z,77.25
2016-02-26T04:52:05.741Z,77.72
2016-02-26T04:53:05.745Z,77.34
2016-02-26T04:54:05.747Z,77.53
2016-02-26T04:55:05.734Z,78.01
2016-02-26T04:56:05.737Z,78.1
2016-02-26T04:57:05.739Z,78.1
2016-02-26T04:58:05.743Z,78.1
2016-02-26T04:59:05.746Z,78.72
2016-02-26T05:00:05.748Z,78.53
2016-02-26T05:01:05.751Z,79
2016-02-26T05:02:05.737Z,79
2016-02-26T05:03:05.756Z,79.38
2016-02-26T05:04:05.758Z,79.29
2016-02-26T05:05:05.579Z,79.48
2016-02-26T05:06:05.738Z,79.1
2016-02-26T05:07:05.741Z,79.67
2016-02-26T05:08:05.728Z,79.38
2016-02-26T05:09:05.731Z,79.57
2016-02-26T05:10:05.734Z,79.95
2016-02-26T05:11:05.721Z,79.86
2016-02-26T05:12:05.723Z,80.33
2016-02-26T05:13:05.726Z,80.43
2016-02-26T05:14:05.729Z,80.71
2016-02-26T05:15:05.731Z,80.52
2016-02-26T05:16:05.734Z,80.62
2016-02-26T05:17:05.580Z,80.8
2016-02-26T05:18:05.724Z,80.9
2016-02-26T05:19:05.726Z,80.99
2016-02-26T05:20:05.729Z,80.9
2016-02-26T05:21:05.731Z,81.27
2016-02-26T05:22:05.734Z,81.37
2016-02-26T05:23:05.722Z,81.37
2016-02-26T05:24:05.724Z,81.65
2016-02-26T05:25:05.727Z,82.22
2016-02-26T05:26:05.730Z,81.93
2016-02-26T05:27:05.717Z,81.93
2016-02-26T05:28:05.735Z,81.84
2016-02-26T05:29:05.738Z,81.65
2016-02-26T05:30:05.708Z,82.12
2016-02-26T05:31:05.712Z,81.74
2016-02-26T05:32:05.714Z,81.84
2016-02-26T05:33:05.716Z,81.74
2016-02-26T05:34:05.719Z,81.65
2016-02-26T05:35:05.707Z,81.27
2016-02-26T05:36:05.710Z,80.99
2016-02-26T05:37:05.713Z,80.9
2016-02-26T05:38:05.715Z,80.05
2016-02-26T05:39:05.702Z,80.14
2016-02-26T05:40:05.704Z,79.48
2016-02-26T05:41:05.707Z,79
2016-02-26T05:42:05.709Z,79.57
2016-02-26T05:43:05.712Z,79.48
2016-02-26T05:44:05.700Z,79.38
2016-02-26T05:45:05.703Z,79.29
2016-02-26T05:46:05.706Z,79.29
2016-02-26T05:47:05.708Z,78.63
2016-02-26T05:48:05.695Z,78.63
2016-02-26T05:49:05.698Z,77.97
2016-02-26T05:50:05.717Z,76.74
2016-02-26T05:51:05.719Z,76.45
2016-02-26T05:52:05.690Z,75.98
2016-02-26T05:53:05.693Z,74
2016-02-26T05:54:05.696Z,73.81
2016-02-26T05:55:05.698Z,73.05
2016-02-26T05:56:05.700Z,72.43
2016-02-26T05:57:05.689Z,70.92
2016-02-26T05:58:05.691Z,70.54
2016-02-26T05:59:05.693Z,70.35
2016-02-26T06:00:05.696Z,69.12
2016-02-26T06:01:05.699Z,68.27
2016-02-26T06:02:05.686Z,67.98
2016-02-26T06:03:05.689Z,67.79
2016-02-26T06:04:05.691Z,67.79
2016-02-26T06:05:05.538Z,67.6
2016-02-26T06:06:05.680Z,67.6
2016-02-26T06:07:05.683Z,67.13
2016-02-26T06:08:05.686Z,67.03
2016-02-26T06:09:05.689Z,66.85
2016-02-26T06:10:05.691Z,66.47
2016-02-26T06:11:05.694Z,66.56
2016-02-26T06:12:05.681Z,66.47
2016-02-26T06:13:05.684Z,66.47
2016-02-26T06:14:05.687Z,66.75
2016-02-26T06:15:05.674Z,66.66
2016-02-26T06:16:05.677Z,67.41
2016-02-26T06:17:05.679Z,67.41
2016-02-26T06:18:05.682Z,67.51
2016-02-26T06:19:05.684Z,67.51
2016-02-26T06:20:05.687Z,67.79
2016-02-26T06:21:05.674Z,67.6
2016-02-26T06:22:05.678Z,67.7
2016-02-26T06:23:05.680Z,67.79
2016-02-26T06:24:05.683Z,68.27
2016-02-26T06:25:05.669Z,68.55
2016-02-26T06:26:05.688Z,68.46
2016-02-26T06:27:05.675Z,68.55
2016-02-26T06:28:05.677Z,68.55
2016-02-26T06:29:05.681Z,68.46
2016-02-26T06:30:05.667Z,68.46
2016-02-26T06:31:05.670Z,67.74
2016-02-26T06:32:05.672Z,67.45
2016-02-26T06:33:05.675Z,66.79
2016-02-26T06:34:05.662Z,66.22
2016-02-26T06:35:05.666Z,65.84
2016-02-26T06:36:05.668Z,65.66
2016-02-26T06:37:05.686Z,65.02
2016-02-26T06:38:05.657Z,64.83
2016-02-26T06:39:05.660Z,64.74
2016-02-26T06:40:05.662Z,64.17
2016-02-26T06:41:05.666Z,63.32
2016-02-26T06:42:05.669Z,63.32
2016-02-26T06:43:05.651Z,63.51
2016-02-26T06:44:05.653Z,62.94
2016-02-26T06:45:05.656Z,62.85
2016-02-26T06:46:05.660Z,62.88
2016-02-26T06:47:05.662Z,62.97
2016-02-26T06:48:05.664Z,62.21
2016-02-26T06:49:05.652Z,62.4
2016-02-26T06:50:05.670Z,61.83
2016-02-26T06:51:05.673Z,61.27
2016-02-26T06:52:05.675Z,61.27
2016-02-26T06:53:05.663Z,61.46
2016-02-26T06:54:05.650Z,61.36
2016-02-26T06:55:05.653Z,60.73
2016-02-26T06:56:05.671Z,60.92
2016-02-26T06:57:05.657Z,60.25
2016-02-26T06:58:05.660Z,59.59
2016-02-26T06:59:05.648Z,59.22
2016-02-26T07:00:05.651Z,58.93
2016-02-26T07:01:05.654Z,58.58
2016-02-26T07:02:05.656Z,58.2
2016-02-26T07:03:05.659Z,57.92
2016-02-26T07:04:05.661Z,57.82
2016-02-26T07:05:05.664Z,57.44
2016-02-26T07:06:05.667Z,56.87
2016-02-26T07:07:05.670Z,57.16
2016-02-26T07:08:05.673Z,56.34
2016-02-26T07:09:05.659Z,55
2016-02-26T07:10:05.661Z,55.1
2016-02-26T07:11:05.664Z,55
2016-02-26T07:12:05.668Z,55.1
2016-02-26T07:13:05.670Z,54.82
2016-02-26T07:14:05.673Z,53.58
2016-02-26T07:15:05.675Z,52.95
2016-02-26T07:16:05.662Z,52.19
2016-02-26T07:17:05.664Z,52.09
2016-02-26T07:18:05.667Z,51.52
2016-02-26T07:19:05.669Z,50.48
2016-02-26T07:20:05.673Z,49.55
2016-02-26T07:21:05.676Z,48.89
2016-02-26T07:22:05.678Z,48.61
2016-02-26T07:23:05.681Z,47.37
2016-02-26T07:24:05.683Z,46.9
2016-02-26T07:25:05.687Z,46.23
2016-02-26T07:26:05.689Z,45.76
2016-02-26T07:27:05.692Z,45.57
2016-02-26T07:28:05.694Z,45.66
2016-02-26T07:29:05.697Z,44.81
2016-02-26T07:30:05.699Z,44.54
2016-02-26T07:31:05.687Z,44.26
2016-02-26T07:32:05.704Z,43.5
2016-02-26T07:33:05.693Z,43.02
2016-02-26T07:34:05.696Z,43.02
2016-02-26T07:35:05.698Z,43.21
2016-02-26T07:36:05.701Z,43.02
2016-02-26T07:37:05.703Z,42.08
2016-02-26T07:38:05.706Z,41.13
2016-02-26T07:39:05.709Z,40.65
2016-02-26T07:40:05.712Z,41.13
2016-02-26T07:41:05.714Z,41.69
2016-02-26T07:42:05.717Z,41.6
2016-02-26T07:43:05.719Z,40.58
2016-02-26T07:44:05.737Z,40.58
2016-02-26T07:45:05.724Z,40.2
2016-02-26T07:46:05.728Z,40.1
2016-02-26T07:47:05.731Z,39.25
2016-02-26T07:48:05.733Z,38.89
2016-02-26T07:49:05.736Z,39.15
2016-02-26T07:50:05.738Z,39.06
2016-02-26T07:51:05.741Z,39.17
2016-02-26T07:52:05.743Z,38.12
2016-02-26T07:53:05.747Z,37.93
2016-02-26T07:54:05.749Z,37.46
2016-02-26T07:55:05.752Z,37.93
2016-02-26T07:56:05.754Z,38.03
2016-02-26T07:57:05.757Z,37.92
2016-02-26T07:58:05.759Z,38.03
2016-02-26T07:59:05.763Z,37.65
2016-02-26T08:00:05.766Z,38.22
2016-02-26T08:01:05.768Z,38.22
2016-02-26T08:02:05.771Z,37.37
2016-02-26T08:03:05.773Z,36.6
2016-02-26T08:04:05.776Z,36.51
2016-02-26T08:05:05.778Z,36.43
2016-02-26T08:06:05.781Z,36.32
2016-02-26T08:07:05.784Z,36.15
2016-02-26T08:08:05.787Z,36.05
2016-02-26T08:09:05.790Z,35.58
2016-02-26T08:10:05.792Z,34.91
2016-02-26T08:11:05.810Z,35.19
2016-02-26T08:12:05.798Z,35
2016-02-26T08:13:05.815Z,35.29
2016-02-26T08:14:05.818Z,35.58
2016-02-26T08:15:05.853Z,35.96
2016-02-26T08:16:05.823Z,36.15
2016-02-26T08:17:05.826Z,35.94
2016-02-26T08:18:05.829Z,35.19
2016-02-26T08:19:05.831Z,35.84
2016-02-26T08:20:05.834Z,36.04
2016-02-26T08:21:05.837Z,35.84
2016-02-26T08:22:05.839Z,36.04
2016-02-26T08:23:05.842Z,35.38
2016-02-26T08:24:05.845Z,33.86
2016-02-26T08:25:05.848Z,33.48
2016-02-26T08:26:05.850Z,32.72
2016-02-26T08:27:05.853Z,32.64
2016-02-26T08:28:05.856Z,33.2
2016-02-26T08:29:05.858Z,33.77
2016-02-26T08:30:05.877Z,33.67
2016-02-26T08:31:05.880Z,33.58
2016-02-26T08:32:05.882Z,33.67
2016-02-26T08:33:05.869Z,33.67
2016-02-26T08:34:05.872Z,33.59
2016-02-26T08:35:05.874Z,33.78
2016-02-26T08:36:05.893Z,33.78
2016-02-26T08:37:05.896Z,33.51
2016-02-26T08:38:05.882Z,32.75
2016-02-26T08:39:05.901Z,31.05
2016-02-26T08:40:05.903Z,30.96
2016-02-26T08:41:05.906Z,31.34
2016-02-26T08:42:05.909Z,31.44
2016-02-26T08:43:05.912Z,31.44
2016-02-26T08:44:05.914Z,31.44
2016-02-26T08:45:05.918Z,30.77
2016-02-26T08:46:05.920Z,29.91
2016-02-26T08:47:05.923Z,29.72
2016-02-26T08:48:05.925Z,30.1
2016-02-26T08:49:05.928Z,29.91
2016-02-26T08:50:05.947Z,30.2
2016-02-26T08:51:05.933Z,30.77
2016-02-26T08:52:05.936Z,30.76
2016-02-26T08:53:05.955Z,30.66
2016-02-26T08:54:05.941Z,31.04
2016-02-26T08:55:05.944Z,31.98
2016-02-26T08:56:05.963Z,31.71
2016-02-26T08:57:05.966Z,31.52
2016-02-26T08:58:05.968Z,31.32
2016-02-26T08:59:05.986Z,31.32
2016-02-26T09:00:05.974Z,31.9
2016-02-26T09:01:05.976Z,30.96
2016-02-26T09:02:05.979Z,30.49
2016-02-26T09:03:05.982Z,30.2
2016-02-26T09:04:05.985Z,30.29
2016-02-26T09:05:05.987Z,30.58
2016-02-26T09:06:05.990Z,30.49
2016-02-26T09:07:05.993Z,30.68
2016-02-26T09:08:05.995Z,31.15
2016-02-26T09:09:05.998Z,31.15
2016-02-26T09:10:06.016Z,30.49
2016-02-26T09:11:06.018Z,30.68
2016-02-26T09:12:06.006Z,30.96
2016-02-26T09:13:06.009Z,30.77
2016-02-26T09:14:06.042Z,30
2016-02-26T09:15:06.014Z,29.16
2016-02-26T09:16:06.032Z,28.5
2016-02-26T09:17:06.020Z,28.03
2016-02-26T09:18:06.037Z,28.23
2016-02-26T09:19:06.040Z,28.42
2016-02-26T09:20:06.043Z,27.94
2016-02-26T09:21:06.045Z,27.27
2016-02-26T09:22:06.048Z,27.27
2016-02-26T09:23:06.050Z,27.94
2016-02-26T09:24:06.053Z,28.13
2016-02-26T09:25:06.056Z,27.66
2016-02-26T09:26:06.058Z,27.27
2016-02-26T09:27:06.061Z,26.7
2016-02-26T09:28:06.064Z,27.18
2016-02-26T09:29:06.130Z,27.37
2016-02-26T09:30:06.069Z,26.61
2016-02-26T09:31:06.072Z,26.79
2016-02-26T09:32:06.075Z,27.27
2016-02-26T09:33:06.077Z,27.37
2016-02-26T09:34:06.080Z,26.89
2016-02-26T09:35:06.083Z,26.79
2016-02-26T09:36:06.085Z,27.16
2016-02-26T09:37:06.088Z,27.83
2016-02-26T09:38:06.090Z,28.67
2016-02-26T09:39:06.094Z,29.53
2016-02-26T09:40:06.096Z,30.1
2016-02-26T09:41:06.099Z,30.57
2016-02-26T09:42:06.102Z,31.13
2016-02-26T09:43:06.120Z,32.09
2016-02-26T09:44:06.138Z,32.74
2016-02-26T09:45:06.109Z,33.86
2016-02-26T09:46:06.332Z,34.53
2016-02-26T09:47:06.115Z,36.51
2016-02-26T09:48:06.117Z,38.18
2016-02-26T09:49:06.120Z,40.16
2016-02-26T09:50:06.123Z,42.03
2016-02-26T09:51:06.126Z,43.08
2016-02-26T09:52:06.129Z,44.12
2016-02-26T09:53:06.132Z,45.33
2016-02-26T09:54:06.134Z,45.62
2016-02-26T09:55:06.153Z,45.33
2016-02-26T09:56:06.156Z,45.81
2016-02-26T09:57:06.142Z,46.66
2016-02-26T09:58:06.145Z,46.66
2016-02-26T09:59:06.147Z,46.94
2016-02-26T10:00:06.213Z,46.75
2016-02-26T10:01:06.153Z,47.3
2016-02-26T10:02:06.155Z,47.68
2016-02-26T10:03:06.158Z,47.68
2016-02-26T10:04:06.161Z,48.34
2016-02-26T10:05:06.163Z,48.06
2016-02-26T10:06:06.182Z,47.68
2016-02-26T10:07:06.169Z,47.58
2016-02-26T10:08:06.171Z,47.68
2016-02-26T10:09:06.174Z,47.2
2016-02-26T10:10:06.176Z,47.3
2016-02-26T10:11:06.180Z,47.11
2016-02-26T10:12:06.182Z,47.3
2016-02-26T10:13:06.185Z,47.68
2016-02-26T10:14:06.188Z,47.39
2016-02-26T10:15:06.191Z,47.58
2016-02-26T10:16:06.193Z,47.39
2016-02-26T10:17:06.193Z,46.73
2016-02-26T10:18:06.184Z,46.92
2016-02-26T10:19:06.174Z,46.45
2016-02-26T10:20:06.168Z,46.45
2016-02-26T10:21:06.159Z,46.45
2016-02-26T10:22:06.135Z,46.92
2016-02-26T10:23:06.149Z,47.2
2016-02-26T10:24:06.147Z,47.68
2016-02-26T10:25:06.144Z,47.49
2016-02-26T10:26:06.159Z,47.96
2016-02-26T10:27:06.142Z,46.83
2016-02-26T10:28:06.143Z,46.54
2016-02-26T10:29:06.144Z,46.35
2016-02-26T10:30:06.145Z,45.97
2016-02-26T10:31:06.146Z,45.78
2016-02-26T10:32:06.133Z,46.45
2016-02-26T10:33:06.135Z,46.64
2016-02-26T10:34:06.138Z,46.83
2016-02-26T10:35:06.139Z,45.69
2016-02-26T10:36:06.157Z,45.31
2016-02-26T10:37:06.144Z,46.07
2016-02-26T10:38:06.146Z,45.59
2016-02-26T10:39:06.148Z,45.69
2016-02-26T10:40:06.166Z,45.21
2016-02-26T10:41:06.153Z,45.4
2016-02-26T10:42:06.156Z,45.5
2016-02-26T10:43:06.159Z,45.21
2016-02-26T10:44:06.176Z,44.84
2016-02-26T10:45:06.164Z,44.93
2016-02-26T10:46:06.167Z,45.21
2016-02-26T10:47:06.169Z,45.78
2016-02-26T10:48:06.172Z,44.85
2016-02-26T10:49:06.175Z,43.98
2016-02-26T10:50:06.177Z,43.82
2016-02-26T10:51:06.165Z,43.88
2016-02-26T10:52:06.183Z,44.27
2016-02-26T10:53:06.186Z,44.74
2016-02-26T10:54:06.188Z,44.74
2016-02-26T10:55:06.175Z,45.21
2016-02-26T10:56:06.193Z,45.12
2016-02-26T10:57:06.196Z,45.21
2016-02-26T10:58:06.199Z,44.46
2016-02-26T10:59:06.202Z,44.17
2016-02-26T11:00:06.188Z,44.36
2016-02-26T11:01:06.191Z,44.08
2016-02-26T11:02:06.210Z,44.08
2016-02-26T11:03:06.196Z,44.74
2016-02-26T11:04:06.199Z,44.65
2016-02-26T11:05:06.202Z,44.55
2016-02-26T11:06:06.204Z,45.12
2016-02-26T11:07:06.207Z,45.4
2016-02-26T11:08:06.225Z,45.78
2016-02-26T11:09:06.213Z,45.9
2016-02-26T11:10:06.216Z,44.67
2016-02-26T11:11:06.234Z,45.24
2016-02-26T11:12:06.220Z,44.48
2016-02-26T11:13:06.208Z,44.29
2016-02-26T11:14:06.226Z,44.48
2016-02-26T11:15:06.213Z,43.82
2016-02-26T11:16:06.247Z,44.67
2016-02-26T11:17:06.218Z,44.48
2016-02-26T11:18:06.221Z,44.29
2016-02-26T11:19:06.223Z,43.43
2016-02-26T11:20:06.226Z,43.05
2016-02-26T11:21:06.229Z,43.43
2016-02-26T11:22:06.231Z,43.72
2016-02-26T11:23:06.234Z,44.48
2016-02-26T11:24:06.236Z,44.48
2016-02-26T11:25:06.239Z,45.21
2016-02-26T11:26:06.242Z,45.33
2016-02-26T11:27:06.245Z,44.76
2016-02-26T11:28:06.232Z,44.57
2016-02-26T11:29:06.298Z,44.38
2016-02-26T11:30:06.253Z,45.05
2016-02-26T11:31:06.256Z,45.14
2016-02-26T11:32:06.243Z,44.48
2016-02-26T11:33:06.246Z,44.2
2016-02-26T11:34:06.264Z,44.01
2016-02-26T11:35:06.313Z,44.1
2016-02-26T11:36:06.269Z,44.2
2016-02-26T11:37:06.272Z,44.29
2016-02-26T11:38:06.260Z,44.48
2016-02-26T11:39:06.263Z,44.85
2016-02-26T11:40:06.280Z,44.57
2016-02-26T11:41:06.267Z,44.2
2016-02-26T11:42:06.271Z,44.38
2016-02-26T11:43:06.351Z,44.57
2016-02-26T11:44:06.276Z,45.14
2016-02-26T11:45:06.278Z,44.1
2016-02-26T11:46:06.265Z,43.53
2016-02-26T11:47:06.284Z,44.01
2016-02-26T11:48:06.271Z,44.1
2016-02-26T11:49:06.289Z,44.48
2016-02-26T11:50:06.291Z,44.01
2016-02-26T11:51:06.279Z,43.91
2016-02-26T11:52:06.297Z,43.72
2016-02-26T11:53:06.300Z,44.29
2016-02-26T11:54:06.287Z,44.29
2016-02-26T11:55:06.290Z,44.1
2016-02-26T11:56:06.292Z,43.72
2016-02-26T11:57:06.295Z,43.62
2016-02-26T11:58:06.313Z,44.1
2016-02-26T11:59:06.300Z,44.01
2016-02-26T12:00:06.303Z,44.67
2016-02-26T12:01:06.305Z,44.48
2016-02-26T12:02:06.292Z,44.67
2016-02-26T12:03:06.311Z,44.29
2016-02-26T12:04:06.313Z,44.67
2016-02-26T12:05:06.144Z,44.48
2016-02-26T12:06:06.350Z,44.95
2016-02-26T12:07:06.306Z,45.33
2016-02-26T12:08:06.308Z,46
2016-02-26T12:09:06.311Z,45.81
2016-02-26T12:10:06.329Z,45.81
2016-02-26T12:11:06.316Z,45.52
2016-02-26T12:12:06.319Z,45.81
2016-02-26T12:13:06.321Z,45.62
2016-02-26T12:14:06.324Z,45.4
2016-02-26T12:15:06.327Z,45.69
2016-02-26T12:16:06.330Z,45.81
2016-02-26T12:17:06.332Z,46.45
2016-02-26T12:18:06.320Z,46.83
2016-02-26T12:19:06.370Z,47.13
2016-02-26T12:20:06.340Z,47.71
2016-02-26T12:21:06.343Z,47.77
2016-02-26T12:22:06.346Z,46.73
2016-02-26T12:23:06.317Z,46.47
2016-02-26T12:24:06.336Z,46.66
2016-02-26T12:25:06.339Z,46.83
2016-02-26T12:26:06.217Z,46.83
2016-02-26T12:27:06.344Z,46.35
2016-02-26T12:28:06.347Z,46.07
2016-02-26T12:29:06.350Z,46.73
2016-02-26T12:30:06.352Z,46.73
2016-02-26T12:31:06.339Z,46.73
2016-02-26T12:32:06.342Z,46.73
2016-02-26T12:33:06.345Z,46.92
2016-02-26T12:34:06.191Z,46.83
2016-02-26T12:35:06.366Z,46.64
2016-02-26T12:36:06.352Z,46.64
2016-02-26T12:37:06.355Z,46.73
2016-02-26T12:38:06.358Z,47.11
2016-02-26T12:39:06.361Z,47.11
2016-02-26T12:40:06.363Z,46.83
2016-02-26T12:41:06.366Z,47.3
2016-02-26T12:42:06.369Z,47.2
2016-02-26T12:43:06.357Z,46.64
2016-02-26T12:44:06.374Z,46.26
2016-02-26T12:45:06.362Z,46.64
2016-02-26T12:46:06.364Z,46.73
2016-02-26T12:47:06.382Z,46.07
2016-02-26T12:48:06.370Z,46.45
2016-02-26T12:49:06.372Z,46.64
2016-02-26T12:50:06.375Z,46.45
2016-02-26T12:51:06.378Z,46.83
2016-02-26T12:52:06.381Z,46.73
2016-02-26T12:53:06.383Z,45.5
2016-02-26T12:54:06.386Z,45.59
2016-02-26T12:55:06.389Z,45.59
2016-02-26T12:56:06.375Z,45.5